createdAt,value
2022-08-31T00:01:00.554Z,3.77
2022-08-31T00:03:46.818Z,3.53
2022-08-31T00:06:16.621Z,3.30
2022-08-31T00:08:45.331Z,3.73
2022-08-31T00:11:14.816Z,3.73
2022-08-31T00:13:46.395Z,3.93
2022-08-31T00:16:15.178Z,3.87
2022-08-31T00:18:44.046Z,3.73
2022-08-31T00:21:12.750Z,3.73
2022-08-31T00:23:41.542Z,3.57
2022-08-31T00:26:10.291Z,3.63
2022-08-31T00:28:39.201Z,3.67
2022-08-31T00:31:10.069Z,3.77
2022-08-31T00:33:39.597Z,3.77
2022-08-31T00:36:10.933Z,4.30
2022-08-31T00:38:40.462Z,3.33
2022-08-31T00:41:10.465Z,3.70
2022-08-31T00:43:42.319Z,2.90
2022-08-31T00:46:14.243Z,3.83
2022-08-31T00:48:45.742Z,3.47
2022-08-31T00:51:18.512Z,3.87
2022-08-31T00:53:49.729Z,3.53
2022-08-31T00:56:20.416Z,3.33
2022-08-31T00:58:54.766Z,3.30
2022-08-31T01:01:26.528Z,3.60
2022-08-31T01:03:55.523Z,4.03
2022-08-31T01:06:25.126Z,4.50
2022-08-31T01:08:55.574Z,4.17
2022-08-31T01:11:24.461Z,4.90
2022-08-31T01:13:53.464Z,5.50
2022-08-31T01:16:27.854Z,5.40
2022-08-31T01:18:58.787Z,5.73
2022-08-31T01:21:30.002Z,4.97
2022-08-31T01:24:02.128Z,5.70
2022-08-31T01:26:32.884Z,5.80
2022-08-31T01:29:05.035Z,5.63
2022-08-31T01:31:41.391Z,7.20
2022-08-31T01:34:10.647Z,9.20
2022-08-31T01:36:41.796Z,7.53
2022-08-31T01:39:12.728Z,8.13
2022-08-31T01:41:44.088Z,8.43
2022-08-31T01:44:13.787Z,10.17
2022-08-31T01:46:43.527Z,8.50
2022-08-31T01:49:12.488Z,8.80
2022-08-31T01:51:41.223Z,8.17
2022-08-31T01:54:12.108Z,8.00
2022-08-31T01:56:43.328Z,9.17
2022-08-31T01:59:13.476Z,9.40
2022-08-31T02:01:45.098Z,8.60
2022-08-31T02:04:15.965Z,9.63
2022-08-31T02:06:47.660Z,9.57
2022-08-31T02:09:18.189Z,10.63
2022-08-31T02:11:47.152Z,9.30
2022-08-31T02:14:15.997Z,9.23
2022-08-31T02:16:44.764Z,10.27
2022-08-31T02:19:13.685Z,9.07
2022-08-31T02:21:42.653Z,8.83
2022-08-31T02:24:12.399Z,9.60
2022-08-31T02:26:42.708Z,9.03
2022-08-31T02:29:11.473Z,9.00
2022-08-31T02:31:40.371Z,9.70
2022-08-31T02:34:09.424Z,9.57
2022-08-31T02:36:38.237Z,9.00
2022-08-31T02:39:08.985Z,8.30
2022-08-31T02:41:37.790Z,8.60
2022-08-31T02:44:08.056Z,9.20
2022-08-31T02:46:36.885Z,8.33
2022-08-31T02:49:06.015Z,9.07
2022-08-31T02:51:34.856Z,8.93
2022-08-31T02:54:03.573Z,9.73
2022-08-31T02:56:32.376Z,8.87
2022-08-31T02:59:01.104Z,9.73
2022-08-31T03:01:32.899Z,10.07
2022-08-31T03:04:02.947Z,8.73
2022-08-31T03:06:31.767Z,8.90
2022-08-31T03:09:01.125Z,9.53
2022-08-31T03:11:30.085Z,9.87
2022-08-31T03:13:59.065Z,8.50
2022-08-31T03:16:28.110Z,9.60
2022-08-31T03:18:58.710Z,10.10
2022-08-31T03:21:27.766Z,8.93
2022-08-31T03:23:56.517Z,10.20
2022-08-31T03:26:25.358Z,10.27
2022-08-31T03:28:55.830Z,9.20
2022-08-31T03:31:25.413Z,11.00
2022-08-31T03:33:54.327Z,11.50
2022-08-31T03:36:24.692Z,11.17
2022-08-31T03:38:53.363Z,9.90
2022-08-31T03:41:25.247Z,10.47
2022-08-31T03:43:54.476Z,12.93
2022-08-31T03:46:23.850Z,11.97
2022-08-31T03:48:54.828Z,11.20
2022-08-31T03:51:25.009Z,11.03
2022-08-31T03:53:53.854Z,11.67
2022-08-31T03:56:22.817Z,12.27
2022-08-31T03:58:51.574Z,11.10
2022-08-31T04:01:20.328Z,12.20
2022-08-31T04:03:49.084Z,11.50
2022-08-31T04:06:17.753Z,12.03
2022-08-31T04:08:48.845Z,12.33
2022-08-31T04:11:19.830Z,11.03
2022-08-31T04:13:56.779Z,12.10
2022-08-31T04:16:26.569Z,11.60
2022-08-31T04:18:55.837Z,12.40
2022-08-31T04:21:27.308Z,12.70
2022-08-31T04:23:57.935Z,13.40
2022-08-31T04:26:28.930Z,13.60
2022-08-31T04:28:58.183Z,13.27
2022-08-31T04:31:28.688Z,10.83
2022-08-31T04:33:57.660Z,12.57
2022-08-31T04:36:27.772Z,11.50
2022-08-31T04:39:01.765Z,12.33
2022-08-31T04:41:32.789Z,12.67
2022-08-31T04:44:03.343Z,13.20
2022-08-31T04:46:32.588Z,14.60
2022-08-31T04:49:01.279Z,13.30
2022-08-31T04:51:32.087Z,12.40
2022-08-31T04:54:02.196Z,13.63
2022-08-31T04:56:34.033Z,13.50
2022-08-31T04:59:05.833Z,12.53
2022-08-31T05:01:42.975Z,12.90
2022-08-31T05:04:13.534Z,12.73
2022-08-31T05:06:44.370Z,13.00
2022-08-31T05:09:17.486Z,13.23
2022-08-31T05:11:49.962Z,12.10
2022-08-31T05:14:18.772Z,13.63
2022-08-31T05:16:47.721Z,12.43
2022-08-31T05:19:16.596Z,12.77
2022-08-31T05:21:45.776Z,12.00
2022-08-31T05:24:18.141Z,12.53
2022-08-31T05:26:49.265Z,13.13
2022-08-31T05:29:20.224Z,12.10
2022-08-31T05:31:52.415Z,13.33
2022-08-31T05:34:22.807Z,11.80
2022-08-31T05:36:54.846Z,13.70
2022-08-31T05:39:26.112Z,12.07
2022-08-31T05:41:55.314Z,13.80
2022-08-31T05:44:28.711Z,13.43
2022-08-31T05:47:04.091Z,13.80
2022-08-31T05:49:33.466Z,12.43
2022-08-31T05:52:02.718Z,14.00
2022-08-31T05:54:34.547Z,13.20
2022-08-31T05:57:03.309Z,12.27
2022-08-31T05:59:32.274Z,13.77
2022-08-31T06:02:02.630Z,12.60
2022-08-31T06:04:32.124Z,12.30
2022-08-31T06:07:00.833Z,11.20
2022-08-31T06:09:29.708Z,11.50
2022-08-31T06:12:00.027Z,13.30
2022-08-31T06:14:28.779Z,13.90
2022-08-31T06:16:57.489Z,15.97
2022-08-31T06:19:27.352Z,16.10
2022-08-31T06:21:57.524Z,15.13
2022-08-31T06:24:26.918Z,14.50
2022-08-31T06:26:58.786Z,12.90
2022-08-31T06:29:31.362Z,12.93
2022-08-31T06:32:00.549Z,12.20
2022-08-31T06:34:29.894Z,12.27
2022-08-31T06:36:58.688Z,12.23
2022-08-31T06:39:27.703Z,11.77
2022-08-31T06:41:56.920Z,12.63
2022-08-31T06:44:26.288Z,11.93
2022-08-31T06:46:56.659Z,11.73
2022-08-31T06:49:26.185Z,11.80
2022-08-31T06:51:54.921Z,12.93
2022-08-31T06:54:30.982Z,12.00
2022-08-31T06:57:00.158Z,12.13
2022-08-31T06:59:30.081Z,13.03
2022-08-31T07:02:02.298Z,12.90
2022-08-31T07:04:33.834Z,10.83
2022-08-31T07:07:02.731Z,10.60
2022-08-31T07:09:31.603Z,10.60
2022-08-31T07:12:00.717Z,12.00
2022-08-31T07:14:29.610Z,11.27
2022-08-31T07:17:02.984Z,11.70
2022-08-31T07:19:32.785Z,10.80
2022-08-31T07:22:02.542Z,11.00
2022-08-31T07:24:35.084Z,10.73
2022-08-31T07:27:08.606Z,12.27
2022-08-31T07:29:41.297Z,11.70
2022-08-31T07:32:13.044Z,13.27
2022-08-31T07:34:43.873Z,11.90
2022-08-31T07:37:29.378Z,11.17
2022-08-31T07:40:15.873Z,11.60
2022-08-31T07:42:46.803Z,12.10
2022-08-31T07:45:22.465Z,11.70
2022-08-31T07:47:55.286Z,10.33
2022-08-31T07:50:26.940Z,10.87
2022-08-31T07:52:58.377Z,10.97
2022-08-31T07:55:29.196Z,9.80
2022-08-31T07:57:58.260Z,9.60
2022-08-31T08:00:29.781Z,10.20
2022-08-31T08:03:07.893Z,9.70
2022-08-31T08:05:41.547Z,9.03
2022-08-31T08:08:13.995Z,9.57
2022-08-31T08:10:52.152Z,9.30
2022-08-31T08:13:23.062Z,7.90
2022-08-31T08:15:52.528Z,7.63
2022-08-31T08:18:23.019Z,7.23
2022-08-31T08:20:52.760Z,7.90
2022-08-31T08:23:27.952Z,7.60
2022-08-31T08:26:01.671Z,7.53
2022-08-31T08:28:40.854Z,7.83
2022-08-31T08:31:15.119Z,7.40
2022-08-31T08:33:46.467Z,7.70
2022-08-31T08:36:18.129Z,7.30
2022-08-31T08:38:48.304Z,8.00
2022-08-31T08:41:19.166Z,8.33
2022-08-31T08:43:52.454Z,9.17
2022-08-31T08:47:37.477Z,8.00
2022-08-31T08:49:21.613Z,9.50
2022-08-31T08:51:53.947Z,9.03
2022-08-31T08:54:32.115Z,9.17
2022-08-31T08:57:01.869Z,8.47
2022-08-31T08:59:30.808Z,8.20
2022-08-31T09:02:06.782Z,7.90
2022-08-31T09:05:01.973Z,8.90
2022-08-31T09:07:44.500Z,7.70
2022-08-31T09:10:20.825Z,8.07
2022-08-31T09:12:58.046Z,8.57
2022-08-31T09:15:37.306Z,8.57
2022-08-31T09:18:18.632Z,8.67
2022-08-31T09:21:03.458Z,7.23
2022-08-31T09:23:37.785Z,8.80
2022-08-31T09:26:08.566Z,9.33
2022-08-31T09:28:41.501Z,7.40
2022-08-31T09:31:10.530Z,8.40
2022-08-31T09:33:51.049Z,8.30
2022-08-31T09:36:23.193Z,8.87
2022-08-31T09:38:52.325Z,7.63
2022-08-31T09:41:31.526Z,7.00
2022-08-31T09:44:20.357Z,8.43
2022-08-31T09:46:50.459Z,9.10
2022-08-31T09:49:22.419Z,6.60
2022-08-31T09:51:52.555Z,8.80
2022-08-31T09:54:44.574Z,10.37
2022-08-31T09:57:17.519Z,8.20
2022-08-31T09:59:48.358Z,9.10
2022-08-31T10:02:31.776Z,8.57
2022-08-31T10:05:03.881Z,8.43
2022-08-31T10:07:43.191Z,9.87
2022-08-31T10:10:29.970Z,9.10
2022-08-31T10:13:03.798Z,8.47
2022-08-31T10:15:37.016Z,7.70
2022-08-31T10:18:11.823Z,9.37
2022-08-31T10:20:46.489Z,8.23
2022-08-31T10:23:22.612Z,7.53
2022-08-31T10:25:57.476Z,7.10
2022-08-31T10:28:31.998Z,7.57
2022-08-31T10:31:04.384Z,7.20
2022-08-31T10:33:50.800Z,7.90
2022-08-31T10:36:20.035Z,6.97
2022-08-31T10:38:50.827Z,6.67
2022-08-31T10:41:25.671Z,7.30
2022-08-31T10:44:01.684Z,9.20
2022-08-31T10:46:35.394Z,8.63
2022-08-31T10:49:06.094Z,8.97
2022-08-31T10:51:39.698Z,8.33
2022-08-31T10:54:28.765Z,7.90
2022-08-31T10:57:06.837Z,7.13
2022-08-31T10:59:39.502Z,8.53
2022-08-31T11:02:30.082Z,7.30
2022-08-31T11:05:03.661Z,7.80
2022-08-31T11:07:39.824Z,8.17
2022-08-31T11:10:20.451Z,7.30
2022-08-31T11:12:52.214Z,6.83
2022-08-31T11:15:59.970Z,8.70
2022-08-31T11:18:47.011Z,8.73
2022-08-31T11:21:37.332Z,8.90
2022-08-31T11:24:21.630Z,8.70
2022-08-31T11:27:00.743Z,7.03
2022-08-31T11:29:34.908Z,8.27
2022-08-31T11:32:11.098Z,7.20
2022-08-31T11:34:50.678Z,6.60
2022-08-31T11:37:55.866Z,6.63
2022-08-31T11:40:59.820Z,8.20
2022-08-31T11:43:57.403Z,7.70
2022-08-31T11:46:53.069Z,6.77
2022-08-31T11:49:47.656Z,8.20
2022-08-31T11:52:48.341Z,7.17
2022-08-31T11:55:27.071Z,6.70
2022-08-31T11:58:27.256Z,7.30
2022-08-31T12:01:02.978Z,8.50
2022-08-31T12:03:53.419Z,7.10
2022-08-31T12:07:07.394Z,7.50
2022-08-31T12:10:11.238Z,7.30
2022-08-31T12:13:25.281Z,8.00
2022-08-31T12:16:17.905Z,7.93
2022-08-31T12:19:34.402Z,7.50
2022-08-31T12:22:30.251Z,6.70
2022-08-31T12:25:12.065Z,7.10
2022-08-31T12:27:45.140Z,7.73
2022-08-31T12:30:19.763Z,7.30
2022-08-31T12:32:54.754Z,6.10
2022-08-31T12:35:25.184Z,7.80
2022-08-31T12:38:02.006Z,7.37
2022-08-31T12:40:33.109Z,7.27
2022-08-31T12:43:05.404Z,7.87
2022-08-31T12:45:53.781Z,7.60
2022-08-31T12:48:34.953Z,7.87
2022-08-31T12:51:10.359Z,6.97
2022-08-31T12:53:52.983Z,6.60
2022-08-31T12:56:27.519Z,7.27
2022-08-31T12:59:07.500Z,6.47
2022-08-31T13:01:41.341Z,6.23
2022-08-31T13:04:15.812Z,7.07
2022-08-31T13:06:48.133Z,6.77
2022-08-31T13:09:31.696Z,6.57
2022-08-31T13:12:02.900Z,7.33
2022-08-31T13:14:41.243Z,7.40
2022-08-31T13:17:15.796Z,7.20
2022-08-31T13:19:50.508Z,6.17
2022-08-31T13:22:28.803Z,6.20
2022-08-31T13:25:11.678Z,6.37
2022-08-31T13:27:50.447Z,5.90
2022-08-31T13:30:22.436Z,6.40
2022-08-31T13:32:55.549Z,6.63
2022-08-31T13:35:28.440Z,6.63
2022-08-31T13:38:05.030Z,6.63
2022-08-31T13:40:37.273Z,7.60
2022-08-31T13:43:08.395Z,6.43
2022-08-31T13:45:40.490Z,9.70
2022-08-31T13:48:22.080Z,7.70
2022-08-31T13:50:55.414Z,8.80
2022-08-31T13:53:39.632Z,8.40
2022-08-31T13:56:43.524Z,7.33
2022-08-31T13:59:22.092Z,7.30
2022-08-31T14:01:52.210Z,6.20
2022-08-31T14:05:00.178Z,7.97
2022-08-31T14:07:35.377Z,7.60
2022-08-31T14:10:08.308Z,7.50
2022-08-31T14:12:46.176Z,8.53
2022-08-31T14:15:22.081Z,7.23
2022-08-31T14:21:10.225Z,7.17
2022-08-31T14:23:38.849Z,6.47
2022-08-31T14:26:12.419Z,6.53
2022-08-31T14:28:44.013Z,8.90
2022-08-31T14:31:24.566Z,7.57
2022-08-31T14:34:15.206Z,7.73
2022-08-31T14:36:50.650Z,7.10
2022-08-31T14:39:23.029Z,7.10
2022-08-31T14:41:53.141Z,7.03
2022-08-31T14:44:24.345Z,6.00
2022-08-31T14:46:53.340Z,5.90
2022-08-31T14:49:23.225Z,5.60
2022-08-31T14:51:52.157Z,6.03
2022-08-31T14:54:24.789Z,5.70
2022-08-31T14:56:56.157Z,5.40
2022-08-31T14:59:24.865Z,5.50
2022-08-31T15:01:57.409Z,6.53
2022-08-31T15:04:27.828Z,6.90
2022-08-31T15:07:06.582Z,8.37
2022-08-31T15:09:41.882Z,10.80
2022-08-31T15:12:15.023Z,10.57
2022-08-31T15:14:45.172Z,8.53
2022-08-31T15:17:19.654Z,7.23
2022-08-31T15:19:52.290Z,5.90
2022-08-31T15:22:21.298Z,6.50
2022-08-31T15:24:51.644Z,8.47
2022-08-31T15:27:21.004Z,8.17
2022-08-31T15:29:50.933Z,7.20
2022-08-31T15:32:19.689Z,8.23
2022-08-31T15:34:57.851Z,8.83
2022-08-31T15:37:28.087Z,9.90
2022-08-31T15:40:07.216Z,9.20
2022-08-31T15:42:39.562Z,10.40
2022-08-31T15:45:10.008Z,11.60
2022-08-31T15:48:00.361Z,11.53
2022-08-31T15:50:31.722Z,10.30
2022-08-31T15:53:08.310Z,10.23
2022-08-31T15:55:41.402Z,10.63
2022-08-31T15:58:11.030Z,9.77
2022-08-31T16:00:42.091Z,9.77
2022-08-31T16:03:11.516Z,9.47
2022-08-31T16:05:43.445Z,9.57
2022-08-31T16:08:13.277Z,9.67
2022-08-31T16:10:45.665Z,8.50
2022-08-31T16:13:16.084Z,8.53
2022-08-31T16:15:50.954Z,8.20
2022-08-31T16:18:21.740Z,8.13
2022-08-31T16:20:51.892Z,8.00
2022-08-31T16:23:22.100Z,8.40
2022-08-31T16:25:52.772Z,8.47
2022-08-31T16:28:22.089Z,8.80
2022-08-31T16:30:51.924Z,9.80
2022-08-31T16:33:21.552Z,8.90
2022-08-31T16:35:50.582Z,9.33
2022-08-31T16:38:19.538Z,8.77
2022-08-31T16:40:48.795Z,10.87
2022-08-31T16:43:18.914Z,9.80
2022-08-31T16:45:47.740Z,10.30
2022-08-31T16:48:33.984Z,11.67
2022-08-31T16:51:03.380Z,11.40
2022-08-31T16:53:32.465Z,10.47
2022-08-31T16:56:03.967Z,9.83
2022-08-31T16:58:51.347Z,11.87
2022-08-31T17:01:24.426Z,11.40
2022-08-31T17:03:55.802Z,11.73
2022-08-31T17:06:25.311Z,11.50
2022-08-31T17:08:55.459Z,11.80
2022-08-31T17:11:26.438Z,11.43
2022-08-31T17:13:59.109Z,11.40
2022-08-31T17:16:30.276Z,12.00
2022-08-31T17:18:59.896Z,11.33
2022-08-31T17:21:30.162Z,10.73
2022-08-31T17:24:02.261Z,11.80
2022-08-31T17:26:33.586Z,11.03
2022-08-31T17:29:06.839Z,11.07
2022-08-31T17:31:38.758Z,11.43
2022-08-31T17:34:07.532Z,10.47
2022-08-31T17:36:37.818Z,11.10
2022-08-31T17:39:07.182Z,10.80
2022-08-31T17:41:36.714Z,11.10
2022-08-31T17:44:07.834Z,11.97
2022-08-31T17:46:37.520Z,11.57
2022-08-31T17:49:06.643Z,11.67
2022-08-31T17:51:35.949Z,11.97
2022-08-31T17:54:07.785Z,11.00
2022-08-31T17:56:47.384Z,11.10
2022-08-31T17:59:19.759Z,10.60
2022-08-31T18:01:50.215Z,12.23
2022-08-31T18:04:19.963Z,12.43
2022-08-31T18:06:51.633Z,11.87
2022-08-31T18:09:22.726Z,12.13
2022-08-31T18:11:52.979Z,13.77
2022-08-31T18:14:25.539Z,10.90
2022-08-31T18:16:56.849Z,13.30
2022-08-31T18:19:28.175Z,12.10
2022-08-31T18:21:57.868Z,11.73
2022-08-31T18:24:27.406Z,12.83
2022-08-31T18:26:57.963Z,12.70
2022-08-31T18:29:32.990Z,11.70
2022-08-31T18:32:04.166Z,11.70
2022-08-31T18:34:35.137Z,11.67
2022-08-31T18:37:04.318Z,11.67
2022-08-31T18:39:59.993Z,11.57
2022-08-31T18:42:47.666Z,12.73
2022-08-31T18:45:19.225Z,11.00
2022-08-31T18:50:44.097Z,10.07
2022-08-31T18:53:15.652Z,9.50
2022-08-31T18:55:56.706Z,9.50
2022-08-31T18:58:25.515Z,9.57
2022-08-31T19:00:57.321Z,9.80
2022-08-31T19:03:27.389Z,10.13
2022-08-31T19:05:57.056Z,9.50
2022-08-31T19:08:26.735Z,11.37
2022-08-31T19:10:57.951Z,9.17
2022-08-31T19:13:31.476Z,9.03
2022-08-31T19:16:14.801Z,10.73
2022-08-31T19:18:45.859Z,12.03
2022-08-31T19:21:17.092Z,12.27
2022-08-31T19:23:46.550Z,10.77
2022-08-31T19:26:20.556Z,10.60
2022-08-31T19:28:51.369Z,10.50
2022-08-31T19:31:24.532Z,10.57
2022-08-31T19:33:57.207Z,10.33
2022-08-31T19:36:27.136Z,9.93
2022-08-31T19:38:59.704Z,10.17
2022-08-31T19:41:29.077Z,9.73
2022-08-31T19:44:08.148Z,10.10
2022-08-31T19:46:52.281Z,10.40
2022-08-31T19:49:21.734Z,9.53
2022-08-31T19:51:55.064Z,10.77
2022-08-31T19:54:26.057Z,11.20
2022-08-31T19:56:55.551Z,10.60
2022-08-31T19:59:24.524Z,12.17
2022-08-31T20:01:56.631Z,13.80
2022-08-31T20:04:28.682Z,12.40
2022-08-31T20:06:59.009Z,12.07
2022-08-31T20:09:28.017Z,14.00
2022-08-31T20:11:59.983Z,12.30
2022-08-31T20:14:28.923Z,12.60
2022-08-31T20:17:00.641Z,13.50
2022-08-31T20:19:36.108Z,14.87
2022-08-31T20:22:07.783Z,12.70
2022-08-31T20:24:38.883Z,12.73
2022-08-31T20:27:16.123Z,12.33
2022-08-31T20:29:44.924Z,12.27
2022-08-31T20:32:15.008Z,13.23
2022-08-31T20:34:44.728Z,13.20
2022-08-31T20:37:14.321Z,13.20
2022-08-31T20:39:43.255Z,12.17
2022-08-31T20:42:12.735Z,12.23
2022-08-31T20:44:43.447Z,11.60
2022-08-31T20:47:36.844Z,11.63
2022-08-31T20:50:11.352Z,11.63
2022-08-31T20:52:40.398Z,11.63
2022-08-31T20:55:12.377Z,13.27
2022-08-31T20:57:41.401Z,11.83
2022-08-31T21:00:11.511Z,11.53
2022-08-31T21:02:41.692Z,11.10
2022-08-31T21:05:37.920Z,12.30
2022-08-31T21:08:02.471Z,13.17
2022-08-31T21:10:37.546Z,12.27
2022-08-31T21:13:12.749Z,11.67
2022-08-31T21:15:43.943Z,11.77
2022-08-31T21:18:17.482Z,12.53
2022-08-31T21:20:47.582Z,11.90
2022-08-31T21:23:16.834Z,20.47
2022-08-31T21:25:46.825Z,16.03
2022-08-31T21:28:17.734Z,14.23
2022-08-31T21:30:49.310Z,12.40
2022-08-31T21:33:20.265Z,13.40
2022-08-31T21:35:49.189Z,14.13
2022-08-31T21:38:18.289Z,13.27
2022-08-31T21:40:51.215Z,25.33
2022-08-31T21:43:20.446Z,14.93
2022-08-31T21:45:54.951Z,13.03
2022-08-31T21:48:26.217Z,13.60
2022-08-31T21:50:55.638Z,13.80
2022-08-31T21:53:27.225Z,13.03
2022-08-31T21:55:56.069Z,14.70
2022-08-31T21:58:25.423Z,12.93
2022-08-31T22:00:55.447Z,13.10
2022-08-31T22:03:25.637Z,13.00
2022-08-31T22:05:54.863Z,13.83
2022-08-31T22:08:24.239Z,12.93
2022-08-31T22:10:53.065Z,12.57
2022-08-31T22:13:21.869Z,13.17
2022-08-31T22:15:50.692Z,12.70
2022-08-31T22:18:59.067Z,12.47
2022-08-31T22:21:11.971Z,13.03
2022-08-31T22:23:40.747Z,13.20
2022-08-31T22:26:10.705Z,13.57
2022-08-31T22:28:42.358Z,13.20
2022-08-31T22:31:14.257Z,12.60
2022-08-31T22:33:47.216Z,13.43
2022-08-31T22:36:31.608Z,13.83
2022-08-31T22:39:03.111Z,13.27
2022-08-31T22:41:32.786Z,14.47
2022-08-31T22:44:03.112Z,14.03
2022-08-31T22:46:32.199Z,14.03
2022-08-31T22:49:01.833Z,13.13
2022-08-31T22:51:32.314Z,14.20
2022-08-31T22:54:01.096Z,15.33
2022-08-31T22:56:32.454Z,14.50
2022-08-31T22:59:02.452Z,13.77
2022-08-31T23:01:32.881Z,14.10
2022-08-31T23:04:06.508Z,13.50
2022-08-31T23:06:38.978Z,13.67
2022-08-31T23:09:10.151Z,14.00
2022-08-31T23:11:39.544Z,14.20
2022-08-31T23:14:10.274Z,13.87
2022-08-31T23:16:42.158Z,13.73
2022-08-31T23:19:12.833Z,14.10
2022-08-31T23:21:52.648Z,14.47
2022-08-31T23:24:28.836Z,13.33
2022-08-31T23:27:03.932Z,13.10
2022-08-31T23:29:34.634Z,13.80
2022-08-31T23:32:04.584Z,13.30
2022-08-31T23:34:36.380Z,12.73
2022-08-31T23:37:08.670Z,14.60
2022-08-31T23:39:38.549Z,14.03
2022-08-31T23:42:12.278Z,13.23
2022-08-31T23:44:41.786Z,12.50
2022-08-31T23:47:10.902Z,12.13
2022-08-31T23:49:40.363Z,13.53
2022-08-31T23:52:11.791Z,12.93
2022-08-31T23:54:41.260Z,12.90
2022-08-31T23:57:22.373Z,13.20
